Flight Track Log - Related Links

Times and Time Zones

All times are in EDT time to prevent confusion due to time zone crossing. See the FLG3729 flight status page for this flight to view local times or setup timezone preferences in your user account.

Time Position Orientation Groundspeed Altitude Reporting Facility
EDT Latitude Longitude Course Direction KTS MPH feet Rate Location/Type
Wed 05:54:17 AM 42.7297 -73.8081 283° West 148 170 1,400  Level Boston Center
Wed 05:55:18 AM 42.6817 -73.8156 187° South 196 226 2,800 1,785 Climbing Boston Center
Wed 05:56:18 AM 42.7144 -73.8728 308° West 225 259 5,000 1,786 Climbing Boston Center
Wed 05:56:42 AM 42.7331 -73.8900 326° Northwest 252 290 5,300 2,143 Climbing Boston Center
Wed 05:57:00 AM 42.8250 -74.2749 281° West  Level FlightAware Approximate
Wed 05:57:42 AM 42.7908 -73.9367 329° Northwest 267 307 8,000  Level Boston Center
Wed 05:58:00 AM 42.8439 -74.3964 283° West  Level FlightAware Approximate
Wed 05:58:42 AM 42.8567 -73.9864 331° Northwest 267 307 10,400  Level Boston Center
Wed 05:59:00 AM 42.8641 -74.5177 283° West  Level FlightAware Approximate
Wed 05:59:42 AM 42.8931 -74.0725 300° West 267 307 11,700  Level Boston Center
Wed 06:00:42 AM 42.9142 -74.1978 283° West 295 339 13,600 1,750 Climbing Boston Center
Wed 06:01:42 AM 42.9269 -74.3058 279° West 318 366 15,200 1,500 Climbing Boston Center
Wed 06:02:42 AM 42.9433 -74.4425 279° West 329 379 16,600 1,300 Climbing Boston Center
Wed 06:03:42 AM 42.9603 -74.5539 282° West 335 386 17,800 1,200 Climbing Boston Center
Wed 06:04:42 AM 42.9786 -74.6850 281° West 335 386 19,000 1,150 Climbing Boston Center
Wed 06:05:42 AM 42.9944 -74.8275 279° West 345 397 20,100 900 Climbing Boston Center
Wed 06:06:42 AM 43.0103 -74.9644 279° West 357 411 20,800 750 Climbing Boston Center
Wed 06:07:42 AM 43.0300 -75.0989 281° West 362 417 21,600 900 Climbing Boston Center
Wed 06:08:42 AM 43.0456 -75.2386 279° West 362 417 22,600 800 Climbing Boston Center
Wed 06:09:42 AM 43.0628 -75.3758 280° West 368 423 23,200 550 Climbing Boston Center
Wed 06:10:42 AM 43.0800 -75.5189 279° West 378 435 23,700 500 Climbing Boston Center
Wed 06:11:42 AM 43.0989 -75.6592 280° West 378 435 24,200 500 Climbing Boston Center
Wed 06:12:42 AM 43.1156 -75.8053 279° West 383 441 24,700 591 Climbing Boston Center
Wed 06:13:54 AM 43.1375 -75.9800 280° West 388 447 25,500 758 Climbing Boston Center
Wed 06:16:00 AM 43.1528 -76.2656 274° West 378 435 27,200 811 Climbing Cleveland Center
Wed 06:16:59 AM 43.1433 -76.4058 265° West 378 435 28,000 650 Climbing Cleveland Center
Wed 06:18:00 AM 43.1339 -76.5458 265° West 378 435 28,500 500 Climbing Cleveland Center
Wed 06:18:59 AM 43.1219 -76.6889 264° West 378 435 29,000 550 Climbing Cleveland Center
Wed 06:20:00 AM 43.1042 -76.8408 261° West 373 429 29,600 500 Climbing Cleveland Center
Wed 06:20:59 AM 43.0919 -76.9839 263° West 373 429 30,000 200 Climbing Cleveland Center
Wed 06:22:00 AM 43.0797 -77.1267 263° West 373 429 30,000  Level Cleveland Center
Wed 06:23:00 AM 43.0653 -77.2753 262° West 384 442 30,000  Level Cleveland Center
Wed 06:24:00 AM 43.0528 -77.4208 263° West 389 448 30,000  Level Cleveland Center
Wed 06:25:00 AM 43.0378 -77.5694 262° West 389 448 30,000  Level Cleveland Center
Wed 06:26:00 AM 43.0250 -77.7178 263° West 389 448 30,000  Level Cleveland Center
Wed 06:27:00 AM 43.0097 -77.8689 262° West 394 453 30,000  Level Cleveland Center
Wed 06:27:59 AM 42.9967 -78.0169 263° West 394 453 30,000  Level Cleveland Center
Wed 06:28:59 AM 42.9789 -78.1653 261° West 394 453 30,000  Level Cleveland Center
Wed 06:29:59 AM 42.9653 -78.3136 263° West 394 453 30,000  Level Cleveland Center
Wed 06:31:00 AM 42.9472 -78.4672 261° West 399 459 30,000  Level Cleveland Center
Wed 06:31:59 AM 42.9353 -78.6122 264° West 399 459 30,000  Level Cleveland Center
Wed 06:33:00 AM 42.9147 -78.7633 260° West 399 459 30,000  Level Cleveland Center
Wed 06:33:59 AM 42.8942 -78.9111 259° West 404 465 30,000  Level Cleveland Center
Wed 06:35:00 AM 42.8731 -79.0478 258° West 409 471 30,000  Level Cleveland Center
Wed 06:36:00 AM 42.8481 -79.2097 258° West 414 476 30,000  Level Cleveland Center
Wed 06:37:00 AM 42.8308 -79.3461 260° West 414 476 30,000  Level Cleveland Center
Wed 06:37:59 AM 42.8072 -79.4964 258° West 414 476 30,000  Level Cleveland Center
Wed 06:39:00 AM 42.7858 -79.6439 259° West 414 476 30,000  Level Cleveland Center
Wed 06:40:00 AM 42.7639 -79.7942 259° West 414 476 30,000  Level Cleveland Center
Wed 06:41:00 AM 42.7503 -79.9442 263° West 414 476 30,000  Level Cleveland Center
Wed 06:42:00 AM 42.7386 -80.1111 265° West 407 468 30,000  Level Cleveland Center
Wed 06:43:00 AM 42.7350 -80.2694 268° West 407 468 30,000  Level Cleveland Center
Wed 06:44:00 AM 42.7289 -80.4250 267° West 407 468 30,000 -500 Level Cleveland Center
Wed 06:45:00 AM 42.7228 -80.5775 267° West 407 468 29,000 -1,000 Descending Cleveland Center
Wed 06:46:00 AM 42.7144 -80.7272 266° West 407 468 28,000 -950 Descending Cleveland Center
Wed 06:47:00 AM 42.7078 -80.8600 266° West 400 460 27,100 -958 Descending Cleveland Center
Wed 06:47:59 AM 42.6928 -81.0125 262° West 405 466 26,100 -1,000 Descending Cleveland Center
Wed 06:49:00 AM 42.6775 -81.1536 262° West 395 455 25,100 -992 Descending Cleveland Center
Wed 06:50:00 AM 42.6622 -81.2975 262° West 388 447 24,100 -1,000 Descending Cleveland Center
Wed 06:51:00 AM 42.6447 -81.4356 260° West 383 441 23,100 -1,000 Descending Cleveland Center
Wed 06:52:00 AM 42.6289 -81.5681 261° West 372 428 22,100 -1,000 Descending Cleveland Center
Wed 06:53:00 AM 42.6131 -81.7003 261° West 365 420 21,100 -550 Descending Cleveland Center
Wed 06:54:00 AM 42.5931 -81.8381 259° West 354 407 21,000 -350 Descending Cleveland Center
Wed 06:55:00 AM 42.5789 -81.9706 262° West 354 407 20,400 -1,300 Descending Cleveland Center
Wed 06:56:00 AM 42.5628 -82.1025 261° West 354 407 18,400 -2,082 Descending Cleveland Center
Wed 06:56:38 AM 42.5533 -82.1814 261° West 343 395 17,000 -2,300 Descending Cleveland Center
Wed 06:57:00 AM 42.5486 -82.2206 261° West 348 400 16,100 -1,970 Descending Cleveland Center
Wed 06:57:45 AM 42.5389 -82.3106 262° West 313 360 14,800 -1,900 Descending Cleveland Center
Wed 06:58:00 AM 42.5344 -82.3386 258° West 336 387 14,200 -1,791 Descending Cleveland Center
Wed 06:58:52 AM 42.5222 -82.4425 261° West 308 354 12,800 -1,115 Descending Cleveland Center
Wed 06:59:53 AM 42.5036 -82.5547 257° West 306 352 12,100 -934 Descending Cleveland Center
Wed 07:00:54 AM 42.4686 -82.6578 245° Southwest 299 344 10,900 -1,512 Descending Cleveland Center
Wed 07:02:00 AM 42.4314 -82.7578 243° Southwest 296 341 8,900 -1,857 Descending Cleveland Center
Wed 07:03:00 AM 42.4025 -82.8439 246° West 274 315 7,000 -1,350 Descending Cleveland Center
Wed 07:04:00 AM 42.3964 -82.9422 265° West 263 303 6,200 -550 Descending Cleveland Center
Wed 07:05:00 AM 42.3881 -83.0375 263° West 263 303 5,900 -80 Descending Cleveland Center
Wed 07:05:15 AM 42.3878 -83.0597 269° West 233 268 6,100 -700 Climbing Cleveland Center
Wed 07:06:00 AM 42.3842 -83.1189 265° West 242 278 5,200 -984 Descending Cleveland Center
Wed 07:06:16 AM 42.3797 -83.1411 255° West 201 231 5,100 -738 Descending Cleveland Center
Wed 07:07:05 AM 42.3533 -83.1961 237° Southwest 211 243 4,400 -857 Descending Cleveland Center

Login

Don't have an account? Register now (free) for customized features, flight alerts, and more!